Terminal Aerodrome Forecast
Issued by NWS

Home | Current Version | Previous Version | Text Only | Print | Product List | Glossary On
Versions: 1 2 3 4 5 6 7 8 9 10 11 12 13 14 15 16 17 18 19 20 21 22 23 24 25 26 27 28 29
000
FTUS43 KABR 232329
TAFATY
TAF
KATY 232329Z 2400/2424 VRB05KT P6SM OVC007
     FM240400 VRB06KT 4SM -SN OVC008
     FM240900 09007KT 1SM -SN OVC003
     FM241400 07011KT 1SM -SN OVC003=

USA.gov is the U.S. government's official web portal to all federal, state and local government web resources and services.